createdAt,value
2023-02-03T00:09:13.544Z,67.80
2023-02-03T00:10:13.752Z,68.25
2023-02-03T00:11:13.962Z,68.51
2023-02-03T00:12:14.216Z,69.17
2023-02-03T00:13:14.441Z,69.33
2023-02-03T00:14:14.695Z,69.09
2023-02-03T00:15:14.950Z,68.72
2023-02-03T00:16:15.160Z,68.29
2023-02-03T00:17:15.378Z,68.10
2023-02-03T00:18:15.586Z,68.21
2023-02-03T00:19:17.545Z,68.33
2023-02-03T00:20:15.800Z,68.36
2023-02-03T00:21:15.811Z,68.09
2023-02-03T00:22:15.837Z,67.57
2023-02-03T00:23:15.852Z,68.29
2023-02-03T00:24:15.892Z,68.15
2023-02-03T00:25:15.918Z,68.39
2023-02-03T00:26:15.952Z,68.05
2023-02-03T00:27:15.965Z,68.25
2023-02-03T00:28:16.146Z,67.80
2023-02-03T00:29:15.940Z,67.17
2023-02-03T00:54:03.416Z,69.12
2023-02-03T00:55:03.633Z,68.64
2023-02-03T00:56:03.848Z,68.00
2023-02-03T00:57:04.073Z,67.66
2023-02-03T00:58:04.284Z,66.85
2023-02-03T00:59:04.516Z,66.62
2023-02-03T01:00:04.729Z,67.22
2023-02-03T01:01:04.974Z,67.07
2023-02-03T01:02:05.260Z,67.12
2023-02-03T01:03:05.325Z,66.79
2023-02-03T01:04:05.460Z,66.63
2023-02-03T01:05:05.749Z,66.92
2023-02-03T01:06:05.951Z,67.27
2023-02-03T01:07:06.153Z,67.72
2023-02-03T01:08:06.338Z,67.49
2023-02-03T01:09:06.538Z,68.10
2023-02-03T01:10:06.727Z,67.93
2023-02-03T01:11:06.927Z,68.09
2023-02-03T01:12:07.156Z,67.80
2023-02-03T01:13:07.362Z,67.49
2023-02-03T01:14:07.544Z,67.94
2023-02-03T01:15:07.716Z,68.19
2023-02-03T01:16:08.028Z,67.83
2023-02-03T01:17:08.113Z,67.95
2023-02-03T01:18:08.301Z,68.78
2023-02-03T01:19:08.475Z,68.81
2023-02-03T01:20:08.705Z,68.78
2023-02-03T01:21:08.901Z,68.18
2023-02-03T01:22:09.109Z,67.80
2023-02-03T01:23:09.319Z,68.48
2023-02-03T01:24:09.539Z,69.65
2023-02-03T01:43:13.387Z,70.92
2023-02-03T01:44:13.657Z,69.91
2023-02-03T01:45:13.856Z,69.92
2023-02-03T01:46:14.121Z,69.12
2023-02-03T01:47:14.250Z,68.09
2023-02-03T01:48:14.459Z,68.61
2023-02-03T01:49:14.667Z,67.98
2023-02-03T01:50:14.883Z,68.68
2023-02-03T01:51:15.074Z,68.96
2023-02-03T01:52:15.273Z,68.98
2023-02-03T01:53:15.478Z,68.87
2023-02-03T01:54:15.652Z,69.36
2023-02-03T01:56:15.996Z,68.58
2023-02-03T02:34:23.486Z,68.86
2023-02-03T02:35:23.759Z,68.02
2023-02-03T02:36:23.896Z,67.81
2023-02-03T02:37:24.128Z,67.08
2023-02-03T02:38:24.360Z,67.19
2023-02-03T02:39:24.602Z,66.84
2023-02-03T02:40:25.318Z,66.60
2023-02-03T02:41:24.826Z,66.10
2023-02-03T02:42:24.823Z,65.93
2023-02-03T02:43:24.814Z,65.17
2023-02-03T02:44:24.800Z,65.20
2023-02-03T02:45:24.775Z,64.68
2023-02-03T02:46:24.806Z,64.71
2023-02-03T02:47:24.711Z,64.25
2023-02-03T02:48:24.774Z,65.12
2023-02-03T02:49:24.663Z,65.45
2023-02-03T02:50:24.997Z,65.34
2023-02-03T02:51:24.594Z,65.40
2023-02-03T02:52:24.569Z,65.36
2023-02-03T02:53:24.537Z,64.93
2023-02-03T02:54:24.525Z,64.54
2023-02-03T02:55:24.603Z,64.57
2023-02-03T02:56:24.522Z,64.03
2023-02-03T02:57:24.641Z,63.95
2023-02-03T02:58:24.807Z,63.74
2023-02-03T02:59:25.051Z,63.60
2023-02-03T03:00:25.567Z,63.70
2023-02-03T03:01:25.204Z,63.45
2023-02-03T03:02:25.183Z,63.43
2023-02-03T03:03:25.182Z,65.10
2023-02-03T03:04:25.239Z,65.03
2023-02-03T03:05:25.388Z,66.50
2023-02-03T03:06:25.547Z,65.85
2023-02-03T03:07:25.729Z,65.40
2023-02-03T03:08:25.980Z,64.66
2023-02-03T03:09:26.146Z,65.31
2023-02-03T03:10:26.803Z,65.42
2023-02-03T03:11:27.036Z,64.27
2023-02-03T03:12:26.392Z,64.27
2023-02-03T03:13:26.421Z,63.97
2023-02-03T03:14:26.427Z,63.52
2023-02-03T03:15:26.447Z,63.81
2023-02-03T03:16:26.641Z,63.45
2023-02-03T03:17:26.927Z,63.25
2023-02-03T03:18:27.043Z,62.75
2023-02-03T03:19:27.216Z,62.23
2023-02-03T03:20:27.965Z,61.88
2023-02-03T03:21:27.471Z,61.95
2023-02-03T03:22:27.498Z,62.78
2023-02-03T03:23:27.484Z,64.06
2023-02-03T03:24:27.507Z,66.11
2023-02-03T03:25:27.546Z,66.12
2023-02-03T03:26:27.590Z,66.82
2023-02-03T03:27:27.602Z,66.36
2023-02-03T03:28:27.629Z,66.02
2023-02-03T03:29:27.615Z,66.42
2023-02-03T03:30:28.169Z,67.15
2023-02-03T03:31:27.750Z,66.83
2023-02-03T03:32:27.720Z,66.43
2023-02-03T03:33:27.751Z,65.77
2023-02-03T03:34:27.774Z,65.59
2023-02-03T03:35:27.801Z,65.03
2023-02-03T03:36:27.819Z,65.31
2023-02-03T03:37:27.818Z,65.24
2023-02-03T03:38:27.909Z,64.67
2023-02-03T03:39:28.072Z,65.23
2023-02-03T03:40:28.528Z,64.38
2023-02-03T03:41:28.522Z,64.39
2023-02-03T03:42:30.734Z,64.80
2023-02-03T03:43:28.648Z,64.30
2023-02-03T03:44:28.611Z,63.93
2023-02-03T03:45:28.572Z,63.60
2023-02-03T03:46:28.540Z,63.54
2023-02-03T03:47:28.481Z,64.07
2023-02-03T03:48:28.442Z,64.20
2023-02-03T03:49:28.396Z,63.94
2023-02-03T03:50:28.592Z,63.80
2023-02-03T03:51:28.331Z,63.78
2023-02-03T03:52:28.285Z,65.10
2023-02-03T03:53:28.263Z,64.99
2023-02-03T03:54:28.199Z,65.02
2023-02-03T03:55:28.332Z,64.96
2023-02-03T03:56:28.618Z,65.04
2023-02-03T03:57:28.792Z,65.80
2023-02-03T03:58:28.988Z,66.62
2023-02-03T03:59:29.206Z,66.35
2023-02-03T04:00:29.601Z,65.70
2023-02-03T04:01:29.715Z,64.92
2023-02-03T04:02:29.908Z,64.73
2023-02-03T04:03:29.981Z,64.55
2023-02-03T04:21:33.380Z,64.37
2023-02-03T04:22:33.567Z,65.34
2023-02-03T04:23:33.833Z,65.40
2023-02-03T04:24:34.045Z,64.79
2023-02-03T04:25:34.256Z,64.26
2023-02-03T04:26:34.524Z,63.76
2023-02-03T04:27:34.790Z,63.67
2023-02-03T04:28:34.982Z,65.87
2023-02-03T04:29:35.187Z,65.27
2023-02-03T04:30:35.527Z,66.13
2023-02-03T04:31:35.737Z,66.31
2023-02-03T04:32:35.901Z,65.64
2023-02-03T04:33:36.194Z,65.72
2023-02-03T04:34:36.329Z,65.31
2023-02-03T04:35:36.520Z,64.95
2023-02-03T05:10:43.485Z,64.07
2023-02-03T05:11:43.699Z,64.59
2023-02-03T05:12:43.897Z,64.22
2023-02-03T05:13:44.104Z,63.85
2023-02-03T05:14:44.305Z,64.60
2023-02-03T05:15:44.522Z,64.13
2023-02-03T05:16:46.282Z,64.72
2023-02-03T05:17:44.749Z,65.92
2023-02-03T05:18:44.730Z,66.71
2023-02-03T05:19:44.737Z,66.89
2023-02-03T05:20:44.740Z,66.99
2023-02-03T05:21:44.753Z,68.14
2023-02-03T05:22:44.745Z,67.52
2023-02-03T05:23:44.753Z,66.96
2023-02-03T05:24:44.758Z,66.63
2023-02-03T05:25:44.785Z,66.91
2023-02-03T05:26:44.784Z,69.02
2023-02-03T05:27:44.837Z,68.82
2023-02-03T05:28:44.785Z,67.69
2023-02-03T05:29:44.770Z,68.04
2023-02-03T05:30:44.865Z,67.89
2023-02-03T05:31:44.879Z,67.85
2023-02-03T05:32:44.778Z,66.98
2023-02-03T05:33:44.753Z,66.17
2023-02-03T05:34:44.756Z,65.83
2023-02-03T05:35:44.740Z,66.90
2023-02-03T05:36:44.737Z,66.62
2023-02-03T05:37:44.712Z,67.16
2023-02-03T05:38:44.699Z,66.58
2023-02-03T05:39:44.677Z,65.88
2023-02-03T05:40:44.668Z,66.20
2023-02-03T05:41:44.719Z,66.09
2023-02-03T05:42:44.757Z,65.50
2023-02-03T05:43:44.790Z,66.51
2023-02-03T05:44:44.813Z,66.08
2023-02-03T05:45:44.916Z,65.85
2023-02-03T05:46:45.051Z,67.06
2023-02-03T05:47:45.148Z,67.88
2023-02-03T05:48:45.157Z,67.95
2023-02-03T05:49:45.175Z,67.39
2023-02-03T05:50:45.211Z,66.89
2023-02-03T05:51:45.224Z,66.27
2023-02-03T05:52:45.212Z,65.50
2023-02-03T05:53:45.225Z,65.97
2023-02-03T05:54:45.212Z,65.84
2023-02-03T05:55:45.230Z,65.18
2023-02-03T05:56:45.234Z,64.28
2023-02-03T05:57:45.246Z,65.19
2023-02-03T05:58:45.238Z,66.36
2023-02-03T05:59:45.224Z,66.33
2023-02-03T06:00:45.228Z,66.23
2023-02-03T06:01:45.249Z,65.81
2023-02-03T06:02:45.246Z,66.01
2023-02-03T06:03:46.420Z,66.48
2023-02-03T06:04:45.255Z,66.63
2023-02-03T06:05:45.207Z,66.42
2023-02-03T06:06:45.195Z,65.52
2023-02-03T06:07:45.211Z,65.69
2023-02-03T06:08:45.191Z,66.14
2023-02-03T06:09:45.193Z,67.08
2023-02-03T06:10:45.213Z,67.80
2023-02-03T06:11:45.233Z,68.10
2023-02-03T06:12:45.257Z,67.82
2023-02-03T06:13:45.266Z,67.59
2023-02-03T06:14:45.268Z,68.15
2023-02-03T06:15:45.321Z,68.22
2023-02-03T06:16:45.402Z,68.11
2023-02-03T06:17:45.334Z,67.28
2023-02-03T06:18:45.354Z,67.60
2023-02-03T06:19:45.379Z,67.82
2023-02-03T06:20:45.385Z,67.94
2023-02-03T06:21:45.423Z,68.20
2023-02-03T06:22:45.413Z,68.27
2023-02-03T06:23:45.417Z,68.80
2023-02-03T06:24:45.440Z,68.18
2023-02-03T06:25:45.458Z,67.65
2023-02-03T06:26:45.459Z,67.33
2023-02-03T06:27:45.593Z,67.33
2023-02-03T06:28:45.489Z,67.39
2023-02-03T06:29:45.482Z,66.86
2023-02-03T06:30:45.593Z,67.01
2023-02-03T06:31:45.637Z,67.35
2023-02-03T08:25:53.370Z,65.33
2023-02-03T08:26:53.583Z,66.30
2023-02-03T08:27:53.893Z,66.74
2023-02-03T08:28:54.047Z,68.11
2023-02-03T08:29:54.317Z,67.72
2023-02-03T08:30:54.629Z,67.45
2023-02-03T08:31:54.864Z,66.92
2023-02-03T08:32:55.019Z,66.53
2023-02-03T08:33:55.244Z,65.79
2023-02-03T08:34:55.500Z,65.63
2023-02-03T08:35:55.670Z,65.26
2023-02-03T08:36:55.905Z,65.60
2023-02-03T08:37:56.124Z,64.51
2023-02-03T08:38:56.308Z,65.44
2023-02-03T08:39:56.541Z,65.29
2023-02-03T08:40:56.787Z,65.39
2023-02-03T08:41:57.010Z,65.50
2023-02-03T09:32:03.458Z,61.07
2023-02-03T09:33:03.626Z,61.33
2023-02-03T09:34:03.870Z,60.92
2023-02-03T09:35:04.058Z,61.01
2023-02-03T09:36:04.240Z,60.48
2023-02-03T09:37:04.565Z,60.67
2023-02-03T09:38:04.598Z,60.76
2023-02-03T09:39:04.786Z,60.86
2023-02-03T09:40:04.967Z,61.41
2023-02-03T09:41:11.694Z,61.12
2023-02-03T09:42:06.147Z,60.91
2023-02-03T09:43:05.201Z,60.28
2023-02-03T09:44:05.425Z,60.88
2023-02-03T09:45:05.183Z,60.58
2023-02-03T09:46:05.264Z,60.98
2023-02-03T09:47:08.213Z,61.03
2023-02-03T09:48:05.201Z,60.28
2023-02-03T09:49:05.201Z,60.35
2023-02-03T09:50:05.245Z,59.57
2023-02-03T09:51:05.207Z,60.05
2023-02-03T09:53:07.995Z,59.39
2023-02-03T09:54:05.281Z,59.02
2023-02-03T09:55:05.203Z,59.14
2023-02-03T09:56:05.190Z,59.35
2023-02-03T09:57:05.179Z,59.15
2023-02-03T09:58:05.176Z,58.87
2023-02-03T09:59:05.164Z,58.84
2023-02-03T10:00:06.103Z,58.72
2023-02-03T10:01:05.172Z,59.67
2023-02-03T10:03:05.137Z,60.08
2023-02-03T10:04:05.125Z,59.86
2023-02-03T10:05:05.133Z,59.94
2023-02-03T10:06:05.124Z,59.21
2023-02-03T10:07:05.152Z,59.18
2023-02-03T10:08:06.112Z,59.82
2023-02-03T10:09:05.131Z,59.19
2023-02-03T10:10:05.167Z,58.89
2023-02-03T10:11:05.189Z,58.51
2023-02-03T10:12:05.090Z,58.47
2023-02-03T10:13:05.577Z,58.49
2023-02-03T10:14:05.029Z,57.90
2023-02-03T10:15:05.034Z,57.96
2023-02-03T10:16:05.015Z,57.96
2023-02-03T10:17:05.095Z,57.95
2023-02-03T10:18:04.988Z,57.82
2023-02-03T10:20:05.060Z,58.09
2023-02-03T10:21:04.982Z,58.22
2023-02-03T10:22:05.565Z,57.53
2023-02-03T10:23:05.573Z,57.05
2023-02-03T10:24:04.972Z,57.40
2023-02-03T10:25:04.943Z,57.62
2023-02-03T10:26:04.952Z,57.50
2023-02-03T10:27:04.940Z,57.04
2023-02-03T10:28:05.018Z,56.72
2023-02-03T10:29:04.885Z,57.21
2023-02-03T10:30:04.897Z,56.84
2023-02-03T10:31:04.937Z,56.62
2023-02-03T10:32:05.005Z,56.72
2023-02-03T10:33:04.824Z,57.67
2023-02-03T10:34:04.809Z,57.84
2023-02-03T10:35:04.776Z,58.67
2023-02-03T10:36:04.793Z,58.70
2023-02-03T11:17:05.036Z,51.88
2023-02-03T11:20:05.056Z,53.89
2023-02-03T12:16:13.651Z,49.22
2023-02-03T12:17:13.833Z,49.53
2023-02-03T12:18:14.053Z,49.16
2023-02-03T12:19:14.265Z,49.33
2023-02-03T12:20:14.548Z,49.76
2023-02-03T12:21:14.645Z,50.06
2023-02-03T12:22:14.852Z,49.91
2023-02-03T12:23:15.060Z,49.75
2023-02-03T12:24:15.347Z,48.80
2023-02-03T12:25:15.521Z,49.22
2023-02-03T12:26:15.705Z,48.86
2023-02-03T12:27:15.882Z,49.14
2023-02-03T12:28:27.557Z,49.20
2023-02-03T12:30:15.890Z,48.84
2023-02-03T12:31:15.930Z,48.71
2023-02-03T12:32:15.729Z,49.15
2023-02-03T12:33:15.655Z,49.68
2023-02-03T12:34:15.649Z,49.60
2023-02-03T12:35:15.513Z,51.11
2023-02-03T12:36:15.441Z,50.28
2023-02-03T12:37:15.373Z,49.69
2023-02-03T12:38:15.295Z,49.80
2023-02-03T12:39:15.203Z,50.25
2023-02-03T12:40:15.140Z,49.52
2023-02-03T12:41:15.055Z,49.25
2023-02-03T12:42:14.953Z,49.72
2023-02-03T12:43:14.868Z,49.27
2023-02-03T12:44:14.788Z,48.75
2023-02-03T12:45:14.761Z,49.10
2023-02-03T12:46:14.782Z,48.51
2023-02-03T12:47:14.666Z,48.50
2023-02-03T12:48:14.593Z,49.34
2023-02-03T12:49:14.542Z,50.35
2023-02-03T12:50:14.500Z,49.82
2023-02-03T12:51:14.463Z,49.02
2023-02-03T12:52:14.425Z,49.07
2023-02-03T12:53:14.362Z,49.81
2023-02-03T12:54:14.318Z,49.91
2023-02-03T12:55:14.433Z,49.22
2023-02-03T12:56:14.632Z,49.82
2023-02-03T12:57:14.806Z,49.85
2023-02-03T12:58:15.082Z,49.37
2023-02-03T12:59:15.279Z,49.17
2023-02-03T13:00:15.607Z,50.50
2023-02-03T13:01:15.769Z,50.36
2023-02-03T13:02:16.020Z,49.66
2023-02-03T13:03:16.179Z,50.69
2023-02-03T13:04:16.383Z,51.08
2023-02-03T13:05:16.579Z,50.67
2023-02-03T13:06:16.772Z,50.72
2023-02-03T13:07:16.967Z,50.73
2023-02-03T13:08:17.176Z,51.16
2023-02-03T13:09:17.394Z,51.26
2023-02-03T13:10:17.531Z,50.49
2023-02-03T13:39:23.451Z,46.93
2023-02-03T13:40:23.721Z,46.48
2023-02-03T13:41:23.996Z,46.69
2023-02-03T13:42:24.166Z,46.37
2023-02-03T13:43:37.312Z,45.83
2023-02-03T13:45:24.242Z,46.80
2023-02-03T13:46:24.208Z,47.51
2023-02-03T13:47:24.064Z,47.49
2023-02-03T13:48:23.969Z,47.41
2023-02-03T13:49:23.863Z,47.74
2023-02-03T13:50:23.787Z,47.46
2023-02-03T13:51:23.664Z,46.74
2023-02-03T13:52:23.624Z,46.44
2023-02-03T13:53:23.586Z,46.29
2023-02-03T13:54:23.532Z,46.53
2023-02-03T13:55:23.497Z,46.54
2023-02-03T13:56:23.468Z,45.75
2023-02-03T13:57:23.436Z,46.37
2023-02-03T13:58:23.382Z,46.66
2023-02-03T14:11:23.555Z,47.98
2023-02-03T14:12:23.814Z,49.03
2023-02-03T14:57:33.462Z,48.70
2023-02-03T14:58:34.331Z,48.34
2023-02-03T14:59:33.569Z,50.71
2023-02-03T15:00:33.513Z,51.01
2023-02-03T15:01:33.735Z,49.98
2023-02-03T15:02:33.378Z,50.79
2023-02-03T15:29:33.500Z,46.85
2023-02-03T15:30:33.710Z,48.77
2023-02-03T15:31:34.152Z,49.47
2023-02-03T15:32:34.086Z,49.66
2023-02-03T15:33:35.118Z,49.71
2023-02-03T15:34:34.344Z,49.69
2023-02-03T15:35:34.310Z,49.38
2023-02-03T15:36:34.273Z,49.06
2023-02-03T15:37:34.221Z,49.00
2023-02-03T15:38:34.157Z,49.15
2023-02-03T15:39:34.091Z,49.73
2023-02-03T15:40:34.051Z,48.96
2023-02-03T15:41:34.011Z,48.41
2023-02-03T15:42:33.966Z,47.96
2023-02-03T15:43:33.919Z,47.82
2023-02-03T15:44:33.884Z,49.54
2023-02-03T15:45:34.126Z,51.80
2023-02-03T15:46:33.858Z,51.25
2023-02-03T15:47:33.680Z,50.67
2023-02-03T15:48:33.617Z,51.21
2023-02-03T15:49:33.570Z,52.27
2023-02-03T15:50:33.515Z,51.82
2023-02-03T15:51:33.462Z,50.77
2023-02-03T15:52:33.398Z,49.66
2023-02-03T15:53:46.705Z,50.60
2023-02-03T15:54:34.332Z,51.01
2023-02-03T16:24:33.446Z,52.18
2023-02-03T16:25:33.691Z,52.47
2023-02-03T16:26:33.854Z,52.42
2023-02-03T16:27:34.028Z,51.01
2023-02-03T16:28:34.265Z,49.77
2023-02-03T16:29:34.406Z,50.38
2023-02-03T16:30:34.773Z,50.60
2023-02-03T16:31:34.993Z,50.55
2023-02-03T16:32:35.086Z,49.49
2023-02-03T16:33:35.214Z,49.23
2023-02-03T16:34:35.477Z,50.36
2023-02-03T16:35:35.639Z,51.09
2023-02-03T16:36:35.873Z,50.30
2023-02-03T16:37:36.129Z,50.86
2023-02-03T16:38:36.333Z,53.09
2023-02-03T16:39:36.589Z,53.41
2023-02-03T16:40:36.781Z,53.00
2023-02-03T17:10:43.518Z,54.61
2023-02-03T17:11:43.697Z,54.35
2023-02-03T17:12:43.888Z,52.91
2023-02-03T17:13:44.086Z,52.53
2023-02-03T17:14:44.374Z,52.52
2023-02-03T17:15:44.533Z,54.38
2023-02-03T17:16:44.835Z,53.38
2023-02-03T17:17:44.977Z,52.85
2023-02-03T17:18:45.272Z,53.05
2023-02-03T17:19:45.428Z,52.55
2023-02-03T17:20:45.609Z,51.87
2023-02-03T17:21:45.843Z,51.55
2023-02-03T17:22:46.008Z,53.32
2023-02-03T17:23:46.208Z,53.29
2023-02-03T17:24:46.474Z,53.60
2023-02-03T17:25:46.665Z,54.04
2023-02-03T17:26:46.969Z,54.82
2023-02-03T17:27:47.135Z,55.24
2023-02-03T17:28:47.322Z,55.84
2023-02-03T17:29:47.666Z,55.60
2023-02-03T17:30:47.816Z,55.42
2023-02-03T17:31:47.978Z,54.99
2023-02-03T17:32:48.148Z,56.26
2023-02-03T17:33:48.434Z,55.38
2023-02-03T17:34:48.593Z,53.92
2023-02-03T17:35:48.855Z,53.69
2023-02-03T17:36:49.019Z,54.21
2023-02-03T17:37:49.292Z,53.83
2023-02-03T17:53:23.105Z,53.40
2023-02-03T17:54:23.311Z,53.03
2023-02-03T17:55:23.433Z,52.73
2023-02-03T17:56:23.529Z,52.71
2023-02-03T17:57:23.803Z,52.73
2023-02-03T17:58:23.867Z,52.53
2023-02-03T17:59:24.150Z,52.87
2023-02-03T18:00:24.233Z,53.68
2023-02-03T18:01:24.531Z,52.75
2023-02-03T18:02:24.585Z,52.30
2023-02-03T18:03:24.826Z,52.13
2023-02-03T18:04:24.920Z,52.04
2023-02-03T18:05:25.152Z,51.83
2023-02-03T18:23:28.147Z,53.89
2023-02-03T18:24:28.373Z,54.55
2023-02-03T18:25:28.515Z,55.00
2023-02-03T18:26:29.441Z,54.60
2023-02-03T18:27:28.631Z,54.37
2023-02-03T18:28:28.590Z,55.31
2023-02-03T18:29:28.587Z,54.40
2023-02-03T18:30:29.075Z,52.73
2023-02-03T18:31:28.792Z,52.34
2023-02-03T18:32:28.635Z,52.20
2023-02-03T18:33:28.630Z,53.55
2023-02-03T18:34:28.618Z,54.17
2023-02-03T18:35:28.634Z,54.54
2023-02-03T18:36:28.643Z,54.44
2023-02-03T18:37:28.664Z,54.79
2023-02-03T18:38:28.667Z,54.67
2023-02-03T18:39:28.672Z,54.86
2023-02-03T18:40:29.083Z,54.31
2023-02-03T18:41:28.691Z,55.16
2023-02-03T18:42:28.701Z,55.65
2023-02-03T18:43:28.708Z,54.94
2023-02-03T18:44:28.710Z,55.96
2023-02-03T18:45:28.718Z,55.95
2023-02-03T18:46:28.848Z,56.84
2023-02-03T18:47:28.817Z,55.78
2023-02-03T18:48:28.875Z,55.77
2023-02-03T18:49:28.908Z,56.68
2023-02-03T18:50:29.249Z,56.78
2023-02-03T18:51:28.978Z,54.95
2023-02-03T18:52:29.037Z,52.63
2023-02-03T18:53:29.093Z,53.66
2023-02-03T18:54:29.152Z,51.77
2023-02-03T18:55:29.203Z,51.12
2023-02-03T18:56:29.238Z,51.75
2023-02-03T18:57:29.255Z,52.24
2023-02-03T18:58:29.319Z,50.60
2023-02-03T18:59:29.376Z,50.96
2023-02-03T19:00:29.660Z,50.66
2023-02-03T19:01:29.518Z,51.50
2023-02-03T19:02:29.622Z,50.25
2023-02-03T19:03:29.635Z,50.18
2023-02-03T19:04:29.673Z,50.28
2023-02-03T19:05:29.674Z,49.57
2023-02-03T19:06:29.690Z,49.62
2023-02-03T19:07:29.711Z,49.59
2023-02-03T19:08:29.698Z,50.20
2023-02-03T19:09:29.701Z,49.82
2023-02-03T19:10:29.971Z,49.74
2023-02-03T20:55:38.145Z,63.62
2023-02-03T20:56:38.351Z,63.07
2023-02-03T20:57:38.551Z,62.66
2023-02-03T20:58:38.734Z,64.62
2023-02-03T20:59:38.919Z,64.90
2023-02-03T21:00:39.115Z,65.50
2023-02-03T21:01:39.342Z,65.03
2023-02-03T21:02:39.458Z,64.33
2023-02-03T21:03:39.656Z,63.59
2023-02-03T21:04:39.860Z,63.93
2023-02-03T21:05:40.043Z,63.38
2023-02-03T21:06:40.222Z,63.20
2023-02-03T21:07:40.418Z,63.03
2023-02-03T21:08:40.613Z,63.14
2023-02-03T21:09:40.789Z,63.44
2023-02-03T21:10:40.996Z,63.69
2023-02-03T21:11:41.180Z,63.71
2023-02-03T21:12:41.403Z,63.75
2023-02-03T21:13:41.583Z,64.22
2023-02-03T21:14:41.744Z,64.68
2023-02-03T21:15:41.931Z,64.34
2023-02-03T21:16:42.168Z,64.38
2023-02-03T21:17:42.313Z,64.41
2023-02-03T21:18:42.527Z,64.37
2023-02-03T21:19:42.725Z,64.27
2023-02-03T21:20:42.892Z,64.20
2023-02-03T21:21:43.088Z,63.47
2023-02-03T21:22:43.379Z,63.21
2023-02-03T21:23:44.126Z,63.35
2023-02-03T21:24:43.549Z,62.88
2023-02-03T21:25:43.607Z,62.66
2023-02-03T21:26:43.672Z,62.46
2023-02-03T21:27:43.741Z,62.36
2023-02-03T21:28:43.782Z,62.11
2023-02-03T21:29:43.810Z,62.10
2023-02-03T21:30:43.860Z,62.23
2023-02-03T21:31:43.909Z,62.27
2023-02-03T21:32:43.929Z,62.32
2023-02-03T21:33:44.020Z,62.69
2023-02-03T21:34:44.026Z,62.77
2023-02-03T21:35:44.078Z,62.39
2023-02-03T21:36:44.118Z,62.36
2023-02-03T21:37:44.186Z,62.24
2023-02-03T21:38:44.246Z,62.23
2023-02-03T21:39:44.313Z,61.95
2023-02-03T21:40:44.334Z,62.00
2023-02-03T21:41:44.387Z,62.41
2023-02-03T21:42:44.432Z,62.26
2023-02-03T21:43:44.491Z,62.17
2023-02-03T21:44:44.527Z,62.45
2023-02-03T21:45:44.633Z,62.29
2023-02-03T21:46:44.655Z,62.04
2023-02-03T22:55:48.308Z,65.33
